aviador You're here:

LFMO Decoded Metar

ORANGE in FRANCE
Report Time2017-08-17 13:00:00
UTC Time2017-08-17 13:26:38
Flight Rules vfr VFR
WindVRB at 05 kt
Visibility9999 m
Phenomena:N/A
Clouds:N/A
Expected CloudBase > 8,800 ft AGL from Temp-Dew spread
CeilingNone
Temp35°C (ISA +20)
Dew Point13°C (26% RH)
Heat Index33.9°C
AAT34.0°C
QNH1017 hPa
Density Alt2,559 ft
Elevation180 ft
Report Wrong Elevation
Raw Report
LFMO 171300Z AUTO VRB05KT CAVOK 35/13 Q1017 NOSIG=

Extra information for LFMO:More info

Metar Taf Metar & Taf Last 4 Metars F.Rules Stats Wind Profile Meteogram Temp Stats Airport Information Weather charts Add Link Nearby VenuesMetar ALERT Operation Metar Decoded Social comments